sensor_id;sensor_type;location;lat;lon;timestamp;pressure;altitude;pressure_sealevel;temperature;humidity
49947;BME280;35839;48.662;13.300;2023-02-11T05:40:48;99206.28;;;-5.95;100.00
49947;BME280;35839;48.662;13.300;2023-02-11T05:43:14;99213.88;;;-5.76;100.00
49947;BME280;35839;48.662;13.300;2023-02-11T05:45:39;99218.94;;;-5.67;100.00
49947;BME280;35839;48.662;13.300;2023-02-11T05:48:04;99219.00;;;-5.85;100.00
49947;BME280;35839;48.662;13.300;2023-02-11T05:50:31;99224.97;;;-5.91;100.00
49947;BME280;35839;48.662;13.300;2023-02-11T05:52:56;99220.69;;;-5.84;100.00
49947;BME280;35839;48.662;13.300;2023-02-11T05:55:21;99209.72;;;-6.03;100.00
49947;BME280;35839;48.662;13.300;2023-02-11T05:57:47;99227.41;;;-5.49;100.00
49947;BME280;35839;48.662;13.300;2023-02-11T06:00:13;99215.56;;;-5.77;100.00
49947;BME280;35839;48.662;13.300;2023-02-11T06:02:38;99223.25;;;-5.89;100.00
49947;BME280;35839;48.662;13.300;2023-02-11T06:05:04;99206.31;;;-6.10;100.00
49947;BME280;35839;48.662;13.300;2023-02-11T06:07:29;99211.41;;;-6.01;100.00
49947;BME280;35839;48.662;13.300;2023-02-11T06:09:54;99216.53;;;-6.15;100.00
49947;BME280;35839;48.662;13.300;2023-02-11T06:12:20;99220.78;;;-6.12;100.00
49947;BME280;35839;48.662;13.300;2023-02-11T06:14:45;99211.41;;;-6.02;100.00
49947;BME280;35839;48.662;13.300;2023-02-11T06:17:10;99208.75;;;-5.76;100.00
49947;BME280;35839;48.662;13.300;2023-02-11T06:19:36;99221.53;;;-5.73;100.00
49947;BME280;35839;48.662;13.300;2023-02-11T06:22:02;99224.03;;;-5.67;100.00
49947;BME280;35839;48.662;13.300;2023-02-11T06:24:27;99213.88;;;-5.79;100.00
49947;BME280;35839;48.662;13.300;2023-02-11T06:26:53;99213.03;;;-5.81;100.00
49947;BME280;35839;48.662;13.300;2023-02-11T06:29:18;99229.19;;;-5.68;100.00
49947;BME280;35839;48.662;13.300;2023-02-11T06:31:43;99237.69;;;-5.71;100.00
49947;BME280;35839;48.662;13.300;2023-02-11T06:34:09;99238.47;;;-5.60;100.00
49947;BME280;35839;48.662;13.300;2023-02-11T06:36:35;99237.69;;;-5.71;100.00
49947;BME280;35839;48.662;13.300;2023-02-11T06:39:01;99234.31;;;-5.78;100.00
49947;BME280;35839;48.662;13.300;2023-02-11T06:41:26;99189.25;;;-5.93;100.00
49947;BME280;35839;48.662;13.300;2023-02-11T06:43:52;99215.50;;;-5.47;100.00
49947;BME280;35839;48.662;13.300;2023-02-11T06:46:18;99211.22;;;-5.42;100.00
49947;BME280;35839;48.662;13.300;2023-02-11T06:48:43;99208.66;;;-5.42;100.00
49947;BME280;35839;48.662;13.300;2023-02-11T06:51:11;99224.66;;;-5.05;100.00
49947;BME280;35839;48.662;13.300;2023-02-11T06:53:42;99227.28;;;-5.25;100.00
49947;BME280;35839;48.662;13.300;2023-02-11T06:56:10;99239.09;;;-4.99;100.00
49947;BME280;35839;48.662;13.300;2023-02-11T06:58:36;99213.72;;;-5.33;100.00
49947;BME280;35839;48.662;13.300;2023-02-11T07:01:10;99235.75;;;-5.07;100.00
49947;BME280;35839;48.662;13.300;2023-02-11T07:03:38;99245.06;;;-5.00;100.00
49947;BME280;35839;48.662;13.300;2023-02-11T07:06:04;99247.66;;;-5.03;100.00
49947;BME280;35839;48.662;13.300;2023-02-11T07:08:34;99246.69;;;-4.90;100.00
49947;BME280;35839;48.662;13.300;2023-02-11T07:11:00;99243.22;;;-4.77;100.00
49947;BME280;35839;48.662;13.300;2023-02-11T07:13:26;99236.38;;;-4.72;100.00
49947;BME280;35839;48.662;13.300;2023-02-11T07:15:51;99232.38;;;-5.13;100.00
49947;BME280;35839;48.662;13.300;2023-02-11T07:18:16;99220.31;;;-4.89;100.00
49947;BME280;35839;48.662;13.300;2023-02-11T07:20:42;99213.47;;;-4.90;100.00
49947;BME280;35839;48.662;13.300;2023-02-11T07:23:07;99208.22;;;-4.67;100.00
49947;BME280;35839;48.662;13.300;2023-02-11T07:25:35;99196.31;;;-4.68;100.00
49947;BME280;35839;48.662;13.300;2023-02-11T07:28:00;99189.31;;;-4.46;100.00
49947;BME280;35839;48.662;13.300;2023-02-11T07:30:26;99182.56;;;-4.52;100.00
49947;BME280;35839;48.662;13.300;2023-02-11T07:32:51;99203.06;;;-4.62;100.00
49947;BME280;35839;48.662;13.300;2023-02-11T07:35:16;99226.19;;;-4.75;100.00
49947;BME280;35839;48.662;13.300;2023-02-11T07:37:42;99233.03;;;-4.83;100.00
49947;BME280;35839;48.662;13.300;2023-02-11T07:40:08;99221.81;;;-4.60;100.00
49947;BME280;35839;48.662;13.300;2023-02-11T07:42:34;99224.34;;;-4.54;100.00
49947;BME280;35839;48.662;13.300;2023-02-11T07:44:59;99215.09;;;-4.71;100.00
49947;BME280;35839;48.662;13.300;2023-02-11T07:47:25;99204.00;;;-4.73;100.00
49947;BME280;35839;48.662;13.300;2023-02-11T07:49:50;99225.00;;;-4.34;100.00
49947;BME280;35839;48.662;13.300;2023-02-11T07:52:15;99186.81;;;-4.54;100.00
49947;BME280;35839;48.662;13.300;2023-02-11T07:54:41;99215.72;;;-4.46;100.00
49947;BME280;35839;48.662;13.300;2023-02-11T07:57:06;99233.50;;;-4.29;100.00
49947;BME280;35839;48.662;13.300;2023-02-11T07:59:31;99213.78;;;-4.16;100.00
49947;BME280;35839;48.662;13.300;2023-02-11T08:01:57;99236.81;;;-4.17;100.00
49947;BME280;35839;48.662;13.300;2023-02-11T08:04:22;99244.34;;;-4.04;100.00
49947;BME280;35839;48.662;13.300;2023-02-11T08:06:47;99224.69;;;-3.94;100.00
49947;BME280;35839;48.662;13.300;2023-02-11T08:09:14;99251.81;;;-3.77;100.00
49947;BME280;35839;48.662;13.300;2023-02-11T08:11:43;99208.63;;;-4.13;100.00
49947;BME280;35839;48.662;13.300;2023-02-11T08:14:09;99230.41;;;-3.72;100.00
49947;BME280;35839;48.662;13.300;2023-02-11T08:16:36;99188.59;;;-3.72;100.00
49947;BME280;35839;48.662;13.300;2023-02-11T08:19:12;99218.81;;;-3.29;100.00
49947;BME280;35839;48.662;13.300;2023-02-11T08:21:39;99200.72;;;-3.15;100.00
49947;BME280;35839;48.662;13.300;2023-02-11T08:24:05;99222.56;;;-2.88;100.00
49947;BME280;35839;48.662;13.300;2023-02-11T08:26:31;99226.66;;;-2.75;100.00
49947;BME280;35839;48.662;13.300;2023-02-11T08:29:00;99226.69;;;-2.78;100.00
49947;BME280;35839;48.662;13.300;2023-02-11T08:31:28;99224.88;;;-2.70;100.00
49947;BME280;35839;48.662;13.300;2023-02-11T08:33:54;99224.88;;;-2.70;100.00
49947;BME280;35839;48.662;13.300;2023-02-11T08:36:25;99236.75;;;-2.66;100.00
49947;BME280;35839;48.662;13.300;2023-02-11T08:38:53;99247.19;;;-2.78;100.00
49947;BME280;35839;48.662;13.300;2023-02-11T08:41:18;99253.06;;;-2.70;100.00
49947;BME280;35839;48.662;13.300;2023-02-11T08:43:44;99257.19;;;-2.58;100.00
49947;BME280;35839;48.662;13.300;2023-02-11T08:46:15;99239.16;;;-2.53;100.00
49947;BME280;35839;48.662;13.300;2023-02-11T08:48:41;99238.06;;;-2.40;100.00
49947;BME280;35839;48.662;13.300;2023-02-11T08:51:13;99222.69;;;-2.40;100.00
49947;BME280;35839;48.662;13.300;2023-02-11T08:53:39;99226.88;;;-2.35;100.00
49947;BME280;35839;48.662;13.300;2023-02-11T08:56:04;99210.13;;;-2.04;100.00
49947;BME280;35839;48.662;13.300;2023-02-11T08:58:30;99214.19;;;-1.91;100.00
49947;BME280;35839;48.662;13.300;2023-02-11T09:00:56;99208.75;;;-1.77;100.00
49947;BME280;35839;48.662;13.300;2023-02-11T09:03:21;99214.47;;;-1.61;100.00
49947;BME280;35839;48.662;13.300;2023-02-11T09:05:48;99201.41;;;-1.49;100.00
49947;BME280;35839;48.662;13.300;2023-02-11T09:08:18;99204.00;;;-1.52;100.00
49947;BME280;35839;48.662;13.300;2023-02-11T09:10:44;99198.69;;;-1.43;100.00
49947;BME280;35839;48.662;13.300;2023-02-11T09:13:10;99191.69;;;-1.35;100.00
49947;BME280;35839;48.662;13.300;2023-02-11T09:15:35;99201.88;;;-1.30;100.00
49947;BME280;35839;48.662;13.300;2023-02-11T09:18:01;99208.59;;;-1.24;100.00
49947;BME280;35839;48.662;13.300;2023-02-11T09:20:26;99222.81;;;-1.08;100.00
49947;BME280;35839;48.662;13.300;2023-02-11T09:22:53;99208.03;;;-0.97;100.00
49947;BME280;35839;48.662;13.300;2023-02-11T09:25:19;99211.22;;;-0.86;100.00
49947;BME280;35839;48.662;13.300;2023-02-11T09:27:44;99209.69;;;-0.96;100.00
49947;BME280;35839;48.662;13.300;2023-02-11T09:30:10;99202.66;;;-0.86;100.00
49947;BME280;35839;48.662;13.300;2023-02-11T09:32:35;99204.09;;;-0.74;100.00
49947;BME280;35839;48.662;13.300;2023-02-11T09:35:01;99205.31;;;-0.53;100.00
49947;BME280;35839;48.662;13.300;2023-02-11T09:37:26;99224.53;;;-0.68;100.00
49947;BME280;35839;48.662;13.300;2023-02-11T09:39:51;99216.28;;;-0.82;100.00
49947;BME280;35839;48.662;13.300;2023-02-11T09:44:57;99223.66;;;-0.31;100.00
49947;BME280;35839;48.662;13.300;2023-02-11T09:47:27;99222.34;;;-0.48;100.00
49947;BME280;35839;48.662;13.300;2023-02-11T09:49:59;99225.81;;;-0.49;100.00
49947;BME280;35839;48.662;13.300;2023-02-11T09:53:34;99231.38;;;-0.30;100.00
49947;BME280;35839;48.662;13.300;2023-02-11T09:55:39;99214.66;;;-0.49;100.00
49947;BME280;35839;48.662;13.300;2023-02-11T09:58:14;99220.38;;;-0.38;100.00
49947;BME280;35839;48.662;13.300;2023-02-11T10:03:38;99213.97;;;-0.20;100.00
49947;BME280;35839;48.662;13.300;2023-02-11T10:09:25;99213.06;;;-0.19;100.00
49947;BME280;35839;48.662;13.300;2023-02-11T10:12:08;99215.84;;;0.08;100.00
49947;BME280;35839;48.662;13.300;2023-02-11T10:15:04;99200.38;;;0.08;100.00
49947;BME280;35839;48.662;13.300;2023-02-11T10:17:40;99210.81;;;0.03;100.00
49947;BME280;35839;48.662;13.300;2023-02-11T10:22:47;99199.47;;;0.09;100.00
49947;BME280;35839;48.662;13.300;2023-02-11T10:25:24;99199.47;;;0.41;100.00
49947;BME280;35839;48.662;13.300;2023-02-11T10:27:50;99187.78;;;0.61;100.00
49947;BME280;35839;48.662;13.300;2023-02-11T10:30:27;99186.44;;;0.77;100.00
49947;BME280;35839;48.662;13.300;2023-02-11T10:33:01;99182.16;;;0.76;100.00
49947;BME280;35839;48.662;13.300;2023-02-11T10:35:27;99179.75;;;1.00;100.00
49947;BME280;35839;48.662;13.300;2023-02-11T10:37:53;99167.78;;;0.97;100.00
49947;BME280;35839;48.662;13.300;2023-02-11T10:40:29;99171.81;;;1.06;100.00
49947;BME280;35839;48.662;13.300;2023-02-11T10:42:57;99171.97;;;1.01;100.00
49947;BME280;35839;48.662;13.300;2023-02-11T10:47:55;99165.72;;;1.09;100.00
49947;BME280;35839;48.662;13.300;2023-02-11T10:50:26;99170.22;;;1.30;100.00
49947;BME280;35839;48.662;13.300;2023-02-11T10:52:52;99165.91;;;1.31;100.00
49947;BME280;35839;48.662;13.300;2023-02-11T10:55:23;99158.34;;;1.24;100.00
49947;BME280;35839;48.662;13.300;2023-02-11T10:57:59;99161.88;;;1.22;100.00
49947;BME280;35839;48.662;13.300;2023-02-11T11:00:35;99155.28;;;1.40;100.00
49947;BME280;35839;48.662;13.300;2023-02-11T11:03:04;99151.81;;;1.41;100.00
49947;BME280;35839;48.662;13.300;2023-02-11T11:05:49;99147.84;;;1.57;100.00
49947;BME280;35839;48.662;13.300;2023-02-11T11:08:16;99139.38;;;1.79;100.00
49947;BME280;35839;48.662;13.300;2023-02-11T11:10:48;99137.41;;;1.60;100.00
49947;BME280;35839;48.662;13.300;2023-02-11T11:13:24;99121.19;;;1.57;100.00
49947;BME280;35839;48.662;13.300;2023-02-11T11:18:37;99119.53;;;2.04;100.00
49947;BME280;35839;48.662;13.300;2023-02-11T11:21:23;99134.72;;;1.88;100.00
49947;BME280;35839;48.662;13.300;2023-02-11T11:23:55;99125.69;;;2.00;100.00
49947;BME280;35839;48.662;13.300;2023-02-11T11:26:24;99130.66;;;2.06;100.00
49947;BME280;35839;48.662;13.300;2023-02-11T11:28:51;99116.34;;;2.21;100.00
49947;BME280;35839;48.662;13.300;2023-02-11T11:31:23;99121.06;;;2.10;100.00
49947;BME280;35839;48.662;13.300;2023-02-11T11:33:51;99096.44;;;2.00;100.00
49947;BME280;35839;48.662;13.300;2023-02-11T11:36:29;99095.84;;;2.17;100.00
49947;BME280;35839;48.662;13.300;2023-02-11T11:38:57;99095.28;;;2.32;100.00
49947;BME280;35839;48.662;13.300;2023-02-11T11:41:32;99088.53;;;2.28;100.00
49947;BME280;35839;48.662;13.300;2023-02-11T11:43:59;99092.56;;;2.59;100.00
49947;BME280;35839;48.662;13.300;2023-02-11T11:46:39;99095.94;;;2.61;100.00
49947;BME280;35839;48.662;13.300;2023-02-11T11:49:14;99094.19;;;2.38;100.00
49947;BME280;35839;48.662;13.300;2023-02-11T11:51:46;99097.63;;;2.62;100.00
49947;BME280;35839;48.662;13.300;2023-02-11T11:54:16;99091.38;;;2.67;100.00
49947;BME280;35839;48.662;13.300;2023-02-11T11:56:50;99097.94;;;2.76;100.00
49947;BME280;35839;48.662;13.300;2023-02-11T11:59:18;99094.13;;;2.63;100.00
49947;BME280;35839;48.662;13.300;2023-02-11T12:04:56;99084.66;;;2.85;100.00
49947;BME280;35839;48.662;13.300;2023-02-11T12:10:56;99065.00;;;2.36;100.00
49947;BME280;35839;48.662;13.300;2023-02-11T12:13:50;99070.53;;;2.48;100.00
49947;BME280;35839;48.662;13.300;2023-02-11T12:16:26;99073.56;;;2.60;100.00
49947;BME280;35839;48.662;13.300;2023-02-11T12:21:59;99080.41;;;2.39;100.00
49947;BME280;35839;48.662;13.300;2023-02-11T12:33:14;99055.63;;;2.55;100.00
49947;BME280;35839;48.662;13.300;2023-02-11T12:44:18;99049.31;;;2.84;100.00
49947;BME280;35839;48.662;13.300;2023-02-11T12:54:46;99035.06;;;2.96;100.00
49947;BME280;35839;48.662;13.300;2023-02-11T12:57:28;99029.25;;;3.11;100.00
49947;BME280;35839;48.662;13.300;2023-02-11T13:00:16;99034.97;;;3.20;100.00
49947;BME280;35839;48.662;13.300;2023-02-11T13:03:21;99027.25;;;3.18;100.00
49947;BME280;35839;48.662;13.300;2023-02-11T13:05:51;99024.69;;;3.18;100.00
49947;BME280;35839;48.662;13.300;2023-02-11T13:08:49;99019.34;;;3.21;100.00
49947;BME280;35839;48.662;13.300;2023-02-11T13:11:42;99017.09;;;3.13;100.00
49947;BME280;35839;48.662;13.300;2023-02-11T13:14:23;99009.75;;;3.03;100.00
49947;BME280;35839;48.662;13.300;2023-02-11T13:16:51;99025.66;;;3.15;100.00
49947;BME280;35839;48.662;13.300;2023-02-11T13:19:23;99032.75;;;3.31;100.00
49947;BME280;35839;48.662;13.300;2023-02-11T13:27:16;99033.75;;;3.08;100.00
49947;BME280;35839;48.662;13.300;2023-02-11T13:30:12;99037.94;;;2.88;100.00
49947;BME280;35839;48.662;13.300;2023-02-11T13:33:04;99035.81;;;2.98;100.00
49947;BME280;35839;48.662;13.300;2023-02-11T13:38:01;99040.94;;;3.00;100.00
49947;BME280;35839;48.662;13.300;2023-02-11T13:40:33;99027.69;;;3.07;100.00
49947;BME280;35839;48.662;13.300;2023-02-11T13:43:02;99016.78;;;3.21;100.00
49947;BME280;35839;48.662;13.300;2023-02-11T13:45:46;99022.34;;;3.32;100.00
49947;BME280;35839;48.662;13.300;2023-02-11T13:48:21;99015.88;;;3.43;100.00
49947;BME280;35839;48.662;13.300;2023-02-11T13:50:50;99014.88;;;3.66;100.00
49947;BME280;35839;48.662;13.300;2023-02-11T13:53:17;99007.97;;;3.66;100.00
49947;BME280;35839;48.662;13.300;2023-02-11T13:55:50;99004.28;;;3.31;100.00
49947;BME280;35839;48.662;13.300;2023-02-11T13:58:17;98998.25;;;3.30;100.00
49947;BME280;35839;48.662;13.300;2023-02-11T14:00:48;98994.91;;;3.28;100.00
49947;BME280;35839;48.662;13.300;2023-02-11T14:03:26;98995.03;;;3.25;100.00
49947;BME280;35839;48.662;13.300;2023-02-11T14:06:19;98990.00;;;3.22;100.00
49947;BME280;35839;48.662;13.300;2023-02-11T14:11:51;98986.59;;;3.61;100.00
49947;BME280;35839;48.662;13.300;2023-02-11T14:14:24;98989.31;;;3.37;100.00
49947;BME280;35839;48.662;13.300;2023-02-11T14:22:02;99005.06;;;3.53;100.00
49947;BME280;35839;48.662;13.300;2023-02-11T14:26:58;99012.88;;;3.52;100.00
49947;BME280;35839;48.662;13.300;2023-02-11T14:29:47;99015.16;;;3.59;100.00
49947;BME280;35839;48.662;13.300;2023-02-11T14:35:09;99002.91;;;3.63;100.00
49947;BME280;35839;48.662;13.300;2023-02-11T14:38:01;98996.69;;;3.67;100.00
49947;BME280;35839;48.662;13.300;2023-02-11T14:43:02;98974.81;;;3.54;100.00
49947;BME280;35839;48.662;13.300;2023-02-11T14:45:30;98991.41;;;3.50;100.00
49947;BME280;35839;48.662;13.300;2023-02-11T14:48:03;98989.72;;;3.28;100.00
49947;BME280;35839;48.662;13.300;2023-02-11T14:53:35;99000.47;;;3.60;100.00
49947;BME280;35839;48.662;13.300;2023-02-11T14:56:01;98998.78;;;3.59;100.00
49947;BME280;35839;48.662;13.300;2023-02-11T14:58:29;99011.22;;;3.51;100.00
49947;BME280;35839;48.662;13.300;2023-02-11T15:01:02;98995.03;;;3.25;100.00
49947;BME280;35839;48.662;13.300;2023-02-11T15:06:17;99005.13;;;3.11;100.00
49947;BME280;35839;48.662;13.300;2023-02-11T15:08:51;98999.97;;;3.31;100.00
49947;BME280;35839;48.662;13.300;2023-02-11T15:11:19;99002.31;;;3.17;100.00
49947;BME280;35839;48.662;13.300;2023-02-11T15:13:45;99001.13;;;3.04;100.00
49947;BME280;35839;48.662;13.300;2023-02-11T15:16:12;98997.59;;;3.05;100.00
49947;BME280;35839;48.662;13.300;2023-02-11T15:18:46;99004.84;;;2.97;100.00
49947;BME280;35839;48.662;13.300;2023-02-11T15:21:19;98996.91;;;3.01;100.00
49947;BME280;35839;48.662;13.300;2023-02-11T15:23:58;98997.19;;;2.93;100.00
49947;BME280;35839;48.662;13.300;2023-02-11T15:26:23;98988.97;;;3.06;100.00
49947;BME280;35839;48.662;13.300;2023-02-11T15:28:49;98987.66;;;3.16;100.00
49947;BME280;35839;48.662;13.300;2023-02-11T15:31:19;98987.63;;;2.95;100.00
49947;BME280;35839;48.662;13.300;2023-02-11T15:33:44;98985.22;;;2.91;100.00
49947;BME280;35839;48.662;13.300;2023-02-11T15:36:11;98997.59;;;3.05;100.00
49947;BME280;35839;48.662;13.300;2023-02-11T15:38:37;98992.94;;;2.92;100.00
49947;BME280;35839;48.662;13.300;2023-02-11T15:41:04;98993.44;;;2.80;100.00
49947;BME280;35839;48.662;13.300;2023-02-11T15:43:48;98998.72;;;2.99;100.00
49947;BME280;35839;48.662;13.300;2023-02-11T15:46:19;99007.22;;;2.81;100.00
49947;BME280;35839;48.662;13.300;2023-02-11T15:48:48;99006.44;;;2.79;100.00
49947;BME280;35839;48.662;13.300;2023-02-11T15:51:35;99021.97;;;2.79;100.00
49947;BME280;35839;48.662;13.300;2023-02-11T15:54:13;99017.81;;;2.74;100.00
49947;BME280;35839;48.662;13.300;2023-02-11T15:56:47;99008.13;;;2.58;100.00
49947;BME280;35839;48.662;13.300;2023-02-11T16:01:46;99023.63;;;2.80;100.00
49947;BME280;35839;48.662;13.300;2023-02-11T16:04:20;99026.59;;;2.92;100.00
49947;BME280;35839;48.662;13.300;2023-02-11T16:06:47;99033.13;;;2.79;100.00
49947;BME280;35839;48.662;13.300;2023-02-11T16:17:11;99046.38;;;2.93;100.00
49947;BME280;35839;48.662;13.300;2023-02-11T16:19:46;99051.91;;;2.84;100.00
49947;BME280;35839;48.662;13.300;2023-02-11T16:22:16;99061.53;;;2.81;100.00
49947;BME280;35839;48.662;13.300;2023-02-11T16:24:45;99049.63;;;2.77;100.00
49947;BME280;35839;48.662;13.300;2023-02-11T16:29:46;99044.59;;;2.73;100.00
49947;BME280;35839;48.662;13.300;2023-02-11T16:32:21;99052.81;;;2.83;100.00
49947;BME280;35839;48.662;13.300;2023-02-11T16:34:47;99052.81;;;2.83;100.00
49947;BME280;35839;48.662;13.300;2023-02-11T16:37:13;99053.59;;;2.85;100.00
49947;BME280;35839;48.662;13.300;2023-02-11T16:39:39;99054.94;;;2.73;100.00
49947;BME280;35839;48.662;13.300;2023-02-11T16:42:04;99052.88;;;2.60;100.00
49947;BME280;35839;48.662;13.300;2023-02-11T16:44:32;99063.84;;;2.66;100.00
49947;BME280;35839;48.662;13.300;2023-02-11T16:46:59;99056.16;;;2.63;100.00
49947;BME280;35839;48.662;13.300;2023-02-11T16:49:33;99058.66;;;2.88;100.00
49947;BME280;35839;48.662;13.300;2023-02-11T16:52:01;99062.63;;;2.97;100.00
49947;BME280;35839;48.662;13.300;2023-02-11T16:54:29;99066.84;;;3.00;100.00
49947;BME280;35839;48.662;13.300;2023-02-11T16:56:54;99063.47;;;2.76;100.00
49947;BME280;35839;48.662;13.300;2023-02-11T16:59:20;99059.66;;;2.84;100.00
49947;BME280;35839;48.662;13.300;2023-02-11T17:01:46;99064.97;;;2.81;100.00
49947;BME280;35839;48.662;13.300;2023-02-11T17:04:30;99068.56;;;2.77;100.00
49947;BME280;35839;48.662;13.300;2023-02-11T17:06:57;99069.84;;;2.67;100.00
49947;BME280;35839;48.662;13.300;2023-02-11T17:09:25;99075.94;;;2.66;100.00
49947;BME280;35839;48.662;13.300;2023-02-11T17:11:51;99075.38;;;2.58;100.00
49947;BME280;35839;48.662;13.300;2023-02-11T17:14:17;99084.03;;;2.57;100.00
49947;BME280;35839;48.662;13.300;2023-02-11T17:16:43;99088.28;;;2.58;100.00
49947;BME280;35839;48.662;13.300;2023-02-11T17:19:15;99070.84;;;2.63;100.00
49947;BME280;35839;48.662;13.300;2023-02-11T17:21:42;99080.25;;;2.65;100.00
49947;BME280;35839;48.662;13.300;2023-02-11T17:24:08;99077.03;;;2.59;100.00
49947;BME280;35839;48.662;13.300;2023-02-11T17:26:33;99084.38;;;2.47;100.00
49947;BME280;35839;48.662;13.300;2023-02-11T17:29:01;99076.34;;;2.55;100.00
49947;BME280;35839;48.662;13.300;2023-02-11T17:31:28;99064.22;;;2.56;100.00
49947;BME280;35839;48.662;13.300;2023-02-11T17:33:53;99060.88;;;2.53;100.00
49947;BME280;35839;48.662;13.300;2023-02-11T17:36:19;99061.78;;;2.52;100.00
49947;BME280;35839;48.662;13.300;2023-02-11T17:38:45;99062.25;;;2.40;100.00
49947;BME280;35839;48.662;13.300;2023-02-11T17:41:10;99062.91;;;2.45;100.00
49947;BME280;35839;48.662;13.300;2023-02-11T17:43:36;99058.75;;;2.41;100.00
49947;BME280;35839;48.662;13.300;2023-02-11T17:46:04;99063.44;;;2.53;100.00
49947;BME280;35839;48.662;13.300;2023-02-11T17:48:30;99067.06;;;2.49;100.00
49947;BME280;35839;48.662;13.300;2023-02-11T17:50:55;99058.63;;;2.44;100.00
49947;BME280;35839;48.662;13.300;2023-02-11T17:53:20;99061.91;;;2.71;100.00
49947;BME280;35839;48.662;13.300;2023-02-11T17:55:46;99067.91;;;2.72;100.00
49947;BME280;35839;48.662;13.300;2023-02-11T17:58:11;99069.66;;;2.71;100.00
49947;BME280;35839;48.662;13.300;2023-02-11T18:00:37;99075.84;;;2.67;100.00
49947;BME280;35839;48.662;13.300;2023-02-11T18:03:03;99071.47;;;2.69;100.00
49947;BME280;35839;48.662;13.300;2023-02-11T18:05:35;99074.63;;;2.54;100.00
49947;BME280;35839;48.662;13.300;2023-02-11T18:08:03;99087.16;;;2.65;100.00
49947;BME280;35839;48.662;13.300;2023-02-11T18:10:29;99072.13;;;2.52;100.00
49947;BME280;35839;48.662;13.300;2023-02-11T18:12:54;99080.75;;;2.51;100.00
49947;BME280;35839;48.662;13.300;2023-02-11T18:15:21;99082.81;;;2.43;100.00
49947;BME280;35839;48.662;13.300;2023-02-11T18:17:46;99092.50;;;2.60;100.00
49947;BME280;35839;48.662;13.300;2023-02-11T18:20:12;99086.09;;;2.70;100.00
49947;BME280;35839;48.662;13.300;2023-02-11T18:22:37;99080.13;;;2.68;100.00
49947;BME280;35839;48.662;13.300;2023-02-11T18:25:07;99094.78;;;2.68;100.00
49947;BME280;35839;48.662;13.300;2023-02-11T18:27:33;99089.91;;;2.60;100.00
49947;BME280;35839;48.662;13.300;2023-02-11T18:29:59;99085.72;;;2.58;100.00
49947;BME280;35839;48.662;13.300;2023-02-11T18:32:24;99087.28;;;2.62;100.00
49947;BME280;35839;48.662;13.300;2023-02-11T18:34:50;99088.53;;;2.51;100.00
49947;BME280;35839;48.662;13.300;2023-02-11T18:37:16;99100.38;;;2.57;100.00
49947;BME280;35839;48.662;13.300;2023-02-11T18:39:42;99103.16;;;2.52;100.00
49947;BME280;35839;48.662;13.300;2023-02-11T18:42:08;99103.28;;;2.49;100.00
49947;BME280;35839;48.662;13.300;2023-02-11T18:44:34;99104.16;;;2.48;100.00
49947;BME280;35839;48.662;13.300;2023-02-11T18:46:59;99107.88;;;2.41;100.00
49947;BME280;35839;48.662;13.300;2023-02-11T18:49:25;99102.28;;;2.28;100.00
49947;BME280;35839;48.662;13.300;2023-02-11T18:51:51;99104.16;;;2.25;100.00
49947;BME280;35839;48.662;13.300;2023-02-11T18:54:16;99098.78;;;2.31;100.00
49947;BME280;35839;48.662;13.300;2023-02-11T18:56:41;99090.06;;;2.34;100.00
49947;BME280;35839;48.662;13.300;2023-02-11T18:59:07;99100.34;;;2.35;100.00
49947;BME280;35839;48.662;13.300;2023-02-11T19:01:32;99100.47;;;2.32;100.00
49947;BME280;35839;48.662;13.300;2023-02-11T19:04:03;99100.13;;;2.41;100.00
49947;BME280;35839;48.662;13.300;2023-02-11T19:06:34;99106.25;;;2.39;100.00
49947;BME280;35839;48.662;13.300;2023-02-11T19:09:03;99110.25;;;2.24;100.00
49947;BME280;35839;48.662;13.300;2023-02-11T19:11:30;99116.13;;;2.27;100.00
49947;BME280;35839;48.662;13.300;2023-02-11T19:14:13;99109.53;;;2.19;100.00
49947;BME280;35839;48.662;13.300;2023-02-11T19:16:43;99108.16;;;2.34;100.00
49947;BME280;35839;48.662;13.300;2023-02-11T19:19:11;99118.34;;;2.15;100.00
49947;BME280;35839;48.662;13.300;2023-02-11T19:21:36;99119.16;;;2.15;100.00
49947;BME280;35839;48.662;13.300;2023-02-11T19:24:06;99113.38;;;2.08;100.00
49947;BME280;35839;48.662;13.300;2023-02-11T19:26:31;99121.69;;;2.17;100.00
49947;BME280;35839;48.662;13.300;2023-02-11T19:28:57;99120.91;;;2.15;100.00
49947;BME280;35839;48.662;13.300;2023-02-11T19:31:22;99114.22;;;2.32;100.00
49947;BME280;35839;48.662;13.300;2023-02-11T19:33:48;99111.00;;;2.26;100.00
49947;BME280;35839;48.662;13.300;2023-02-11T19:36:13;99118.00;;;2.24;100.00
49947;BME280;35839;48.662;13.300;2023-02-11T19:38:42;99112.47;;;2.33;100.00
49947;BME280;35839;48.662;13.300;2023-02-11T19:41:08;99114.97;;;2.36;100.00
49947;BME280;35839;48.662;13.300;2023-02-11T19:43:34;99110.66;;;2.35;100.00
49947;BME280;35839;48.662;13.300;2023-02-11T19:46:03;99106.59;;;2.29;100.00
49947;BME280;35839;48.662;13.300;2023-02-11T19:48:28;99110.97;;;2.27;100.00
49947;BME280;35839;48.662;13.300;2023-02-11T19:50:54;99116.50;;;2.17;100.00
49947;BME280;35839;48.662;13.300;2023-02-11T19:53:20;99123.91;;;2.02;100.00
49947;BME280;35839;48.662;13.300;2023-02-11T19:55:46;99126.81;;;1.93;100.00
49947;BME280;35839;48.662;13.300;2023-02-11T19:58:12;99125.69;;;2.00;100.00
49947;BME280;35839;48.662;13.300;2023-02-11T20:00:37;99128.03;;;2.08;100.00
49947;BME280;35839;48.662;13.300;2023-02-11T20:03:03;99133.72;;;2.18;100.00
49947;BME280;35839;48.662;13.300;2023-02-11T20:05:28;99136.19;;;2.21;100.00
49947;BME280;35839;48.662;13.300;2023-02-11T20:07:54;99136.31;;;2.18;100.00
49947;BME280;35839;48.662;13.300;2023-02-11T20:10:20;99142.25;;;2.20;100.00